createdAt,value
2018-07-01T00:00:24.351Z,66.10
2018-07-01T00:02:52.786Z,67.40
2018-07-01T00:05:21.209Z,67.60
2018-07-01T00:07:49.790Z,68.10
2018-07-01T00:10:18.515Z,68.70
2018-07-01T00:12:47.270Z,69.30
2018-07-01T00:15:16.003Z,69.70
2018-07-01T00:17:44.852Z,69.20
2018-07-01T00:20:13.296Z,69.70
2018-07-01T00:22:41.868Z,69.80
2018-07-01T00:25:10.464Z,70.30
2018-07-01T00:27:38.892Z,71.40
2018-07-01T00:30:07.809Z,71.30
2018-07-01T00:32:36.444Z,71.90
2018-07-01T00:35:04.874Z,72.80
2018-07-01T00:37:33.630Z,71.70
2018-07-01T00:40:02.201Z,72.20
2018-07-01T00:42:30.806Z,72.90
2018-07-01T00:44:59.266Z,74.00
2018-07-01T00:47:27.836Z,74.70
2018-07-01T00:49:56.272Z,75.60
2018-07-01T00:52:24.824Z,75.50
2018-07-01T00:54:53.773Z,75.30
2018-07-01T00:57:22.238Z,76.00
2018-07-01T00:59:50.733Z,76.80
2018-07-01T01:02:19.210Z,76.20
2018-07-01T01:04:47.603Z,76.30
2018-07-01T01:07:16.191Z,78.10
2018-07-01T01:09:44.783Z,79.30
2018-07-01T01:12:13.280Z,80.00
2018-07-01T01:14:41.752Z,80.60
2018-07-01T01:17:10.097Z,80.80
2018-07-01T01:19:38.599Z,81.30
2018-07-01T01:22:06.944Z,81.30
2018-07-01T01:24:35.300Z,81.20
2018-07-01T01:27:03.684Z,82.00
2018-07-01T01:29:32.056Z,82.50
2018-07-01T01:32:00.468Z,82.40
2018-07-01T01:34:28.872Z,82.90
2018-07-01T01:36:57.323Z,83.20
2018-07-01T01:39:29.154Z,85.30
2018-07-01T01:42:32.955Z,85.00
2018-07-01T01:47:56.209Z,85.60
2018-07-01T01:50:31.129Z,85.70
2018-07-01T01:53:04.787Z,86.20
2018-07-01T01:55:38.704Z,86.60
2018-07-01T01:58:13.333Z,87.30
2018-07-01T02:00:46.370Z,88.20
2018-07-01T02:03:19.569Z,88.70
2018-07-01T02:05:57.691Z,90.00
2018-07-01T02:08:29.684Z,90.20
2018-07-01T02:10:58.123Z,90.00
2018-07-01T02:13:27.158Z,90.50
2018-07-01T02:16:00.825Z,90.70
2018-07-01T02:18:29.286Z,91.00
2018-07-01T02:20:58.167Z,91.70
2018-07-01T02:24:03.816Z,92.00
2018-07-01T02:26:32.905Z,92.00
2018-07-01T02:29:01.644Z,92.80
2018-07-01T02:31:30.774Z,92.90
2018-07-01T02:33:59.308Z,92.60
2018-07-01T02:36:27.797Z,92.90
2018-07-01T02:38:56.103Z,92.80
2018-07-01T02:41:24.558Z,92.90
2018-07-01T02:43:52.884Z,93.30
2018-07-01T02:46:21.271Z,93.60
2018-07-01T02:48:49.694Z,94.50
2018-07-01T02:51:18.129Z,94.30
2018-07-01T02:56:14.582Z,94.60
2018-07-01T02:58:42.904Z,94.90
2018-07-01T03:01:11.312Z,94.70
2018-07-01T03:03:39.823Z,95.00
2018-07-01T03:06:08.215Z,95.30
2018-07-01T03:08:36.591Z,95.60
2018-07-01T03:11:04.992Z,96.10
2018-07-01T03:13:33.469Z,96.20
2018-07-01T03:16:01.889Z,96.20
2018-07-01T03:18:30.363Z,96.10
2018-07-01T03:20:58.722Z,96.40
2018-07-01T03:23:27.340Z,96.60
2018-07-01T03:25:55.813Z,96.80
2018-07-01T03:28:24.162Z,96.80
2018-07-01T03:30:52.571Z,97.20
2018-07-01T03:33:20.971Z,97.00
2018-07-01T03:35:49.466Z,97.60
2018-07-01T03:38:17.982Z,97.60
2018-07-01T03:40:46.376Z,96.70
2018-07-01T03:43:14.777Z,96.60
2018-07-01T03:45:43.111Z,96.30
2018-07-01T03:48:11.571Z,96.00
2018-07-01T03:50:39.920Z,95.40
2018-07-01T03:53:08.315Z,95.30
2018-07-01T03:55:36.724Z,94.00
2018-07-01T03:58:05.533Z,93.20
2018-07-01T04:00:34.080Z,93.20
2018-07-01T04:03:02.471Z,92.70
2018-07-01T04:05:30.886Z,92.60
2018-07-01T04:07:59.591Z,92.80
2018-07-01T04:10:28.017Z,92.60
2018-07-01T04:12:56.462Z,92.80
2018-07-01T04:15:24.941Z,92.80
2018-07-01T04:17:53.405Z,93.00
2018-07-01T04:20:21.819Z,93.40
2018-07-01T04:22:50.194Z,93.40
2018-07-01T04:25:18.646Z,93.70
2018-07-01T04:27:47.188Z,94.00
2018-07-01T04:30:15.626Z,94.30
2018-07-01T04:32:44.003Z,94.10
2018-07-01T04:35:12.447Z,93.60
2018-07-01T04:37:40.907Z,94.20
2018-07-01T04:40:09.210Z,94.00
2018-07-01T04:42:37.614Z,93.60
2018-07-01T04:45:05.947Z,94.40
2018-07-01T04:47:34.446Z,94.10
2018-07-01T04:50:02.839Z,94.10
2018-07-01T04:52:31.224Z,93.80
2018-07-01T04:55:06.380Z,93.90
2018-07-01T04:57:35.060Z,93.70
2018-07-01T05:00:03.536Z,93.60
2018-07-01T05:02:31.934Z,93.30
2018-07-01T05:05:00.261Z,92.90
2018-07-01T05:07:28.679Z,92.50
2018-07-01T05:09:57.091Z,92.80
2018-07-01T05:12:25.577Z,93.60
2018-07-01T05:14:53.932Z,93.80
2018-07-01T05:17:22.450Z,94.00
2018-07-01T05:19:51.591Z,94.30
2018-07-01T05:22:20.087Z,94.40
2018-07-01T05:24:48.504Z,93.80
2018-07-01T05:27:16.875Z,92.40
2018-07-01T05:29:45.190Z,89.60
2018-07-01T05:32:13.632Z,85.30
2018-07-01T05:34:42.081Z,85.60
2018-07-01T05:37:10.525Z,86.90
2018-07-01T05:39:39.051Z,88.20
2018-07-01T05:42:07.488Z,80.80
2018-07-01T05:44:35.853Z,78.70
2018-07-01T05:47:04.297Z,78.40
2018-07-01T05:49:32.693Z,77.20
2018-07-01T05:52:01.404Z,77.00
2018-07-01T05:54:29.738Z,76.20
2018-07-01T05:56:58.180Z,77.80
2018-07-01T05:59:26.691Z,79.70
2018-07-01T06:01:55.055Z,79.00
2018-07-01T06:04:23.450Z,78.80
2018-07-01T06:06:51.857Z,77.90
2018-07-01T06:09:20.320Z,78.10
2018-07-01T06:11:48.715Z,76.40
2018-07-01T06:14:17.155Z,74.50
2018-07-01T06:16:45.454Z,74.10
2018-07-01T06:19:13.800Z,73.30
2018-07-01T06:21:42.177Z,72.90
2018-07-01T06:24:10.521Z,71.40
2018-07-01T06:26:38.963Z,71.60
2018-07-01T06:29:07.377Z,72.30
2018-07-01T06:31:35.927Z,72.50
2018-07-01T06:34:04.319Z,71.90
2018-07-01T06:36:32.771Z,72.70
2018-07-01T06:39:01.132Z,71.60
2018-07-01T06:41:29.402Z,70.50
2018-07-01T06:43:57.838Z,70.60
2018-07-01T06:46:26.271Z,71.30
2018-07-01T06:48:54.648Z,72.10
2018-07-01T06:51:23.054Z,70.70
2018-07-01T06:53:51.383Z,70.20
2018-07-01T06:56:19.750Z,70.30
2018-07-01T06:58:48.195Z,70.30
2018-07-01T07:01:16.662Z,69.70
2018-07-01T07:03:45.151Z,70.30
2018-07-01T07:06:13.490Z,69.50
2018-07-01T07:08:41.860Z,68.90
2018-07-01T07:11:10.286Z,68.40
2018-07-01T07:13:38.683Z,68.30
2018-07-01T07:16:07.089Z,68.60
2018-07-01T07:21:03.655Z,68.30
2018-07-01T07:23:32.275Z,68.20
2018-07-01T07:26:00.621Z,67.10
2018-07-01T07:28:29.007Z,67.00
2018-07-01T07:30:57.510Z,67.70
2018-07-01T07:33:26.013Z,68.80
2018-07-01T07:35:54.493Z,67.40
2018-07-01T07:38:22.884Z,68.00
2018-07-01T07:40:51.259Z,67.50
2018-07-01T07:45:47.658Z,65.70
2018-07-01T07:48:16.029Z,65.70
2018-07-01T07:50:44.372Z,66.90
2018-07-01T07:53:12.719Z,67.20
2018-07-01T07:55:41.198Z,65.80
2018-07-01T07:58:09.577Z,66.10
2018-07-01T08:00:38.022Z,65.90
2018-07-01T08:03:06.464Z,65.90
2018-07-01T08:05:34.859Z,66.00
2018-07-01T08:10:31.259Z,65.40
2018-07-01T08:12:59.724Z,63.80
2018-07-01T08:15:27.980Z,63.40
2018-07-01T08:17:56.475Z,63.70
2018-07-01T08:20:24.938Z,64.10
2018-07-01T08:22:53.272Z,63.80
2018-07-01T08:25:21.741Z,63.00
2018-07-01T08:27:50.131Z,63.70
2018-07-01T08:30:18.642Z,63.40
2018-07-01T08:32:46.970Z,63.70
2018-07-01T08:35:15.382Z,63.70
2018-07-01T08:37:43.880Z,63.80
2018-07-01T08:40:12.224Z,64.20
2018-07-01T08:42:40.644Z,64.10
2018-07-01T08:45:09.597Z,63.70
2018-07-01T08:47:38.196Z,61.50
2018-07-01T08:50:07.871Z,64.00
2018-07-01T08:52:36.389Z,62.90
2018-07-01T08:55:04.833Z,63.10
2018-07-01T08:57:33.419Z,63.10
2018-07-01T09:00:01.838Z,61.80
2018-07-01T09:02:30.317Z,62.40
2018-07-01T09:04:58.618Z,61.70
2018-07-01T09:07:26.951Z,60.60
2018-07-01T09:09:55.308Z,62.10
2018-07-01T09:12:23.717Z,60.70
2018-07-01T09:14:52.115Z,61.10
2018-07-01T09:17:20.669Z,61.40
2018-07-01T09:19:48.989Z,60.10
2018-07-01T09:22:17.323Z,61.00
2018-07-01T09:24:45.717Z,60.40
2018-07-01T09:27:14.066Z,60.50
2018-07-01T09:30:02.150Z,59.70
2018-07-01T09:32:31.280Z,60.80
2018-07-01T09:34:59.890Z,60.90
2018-07-01T09:37:28.305Z,60.10
2018-07-01T09:39:56.626Z,61.00
2018-07-01T09:42:25.076Z,60.30
2018-07-01T09:44:53.475Z,59.70
2018-07-01T09:47:21.859Z,59.80
2018-07-01T09:49:50.284Z,60.50
2018-07-01T09:52:18.690Z,59.80
2018-07-01T09:54:47.056Z,59.40
2018-07-01T09:57:15.540Z,58.90
2018-07-01T09:59:43.964Z,59.40
2018-07-01T10:02:12.312Z,59.00
2018-07-01T10:04:47.144Z,60.90
2018-07-01T10:07:15.553Z,59.00
2018-07-01T10:09:43.892Z,58.20
2018-07-01T10:12:12.241Z,58.10
2018-07-01T10:14:40.736Z,56.80
2018-07-01T10:17:09.094Z,57.70
2018-07-01T10:19:37.517Z,57.30
2018-07-01T10:22:06.004Z,57.40
2018-07-01T10:24:34.488Z,58.20
2018-07-01T10:27:03.175Z,57.20
2018-07-01T10:29:31.642Z,56.80
2018-07-01T10:31:59.996Z,56.70
2018-07-01T10:34:28.406Z,57.90
2018-07-01T10:36:56.790Z,57.10
2018-07-01T10:39:25.235Z,56.40
2018-07-01T10:41:53.628Z,56.40
2018-07-01T10:44:22.007Z,56.30
2018-07-01T10:46:50.362Z,57.00
2018-07-01T10:49:18.663Z,56.50
2018-07-01T10:51:47.131Z,55.50
2018-07-01T10:54:15.544Z,56.90
2018-07-01T10:56:43.880Z,55.50
2018-07-01T10:59:12.303Z,55.80
2018-07-01T11:01:40.700Z,55.80
2018-07-01T11:04:09.018Z,56.30
2018-07-01T11:06:37.407Z,55.40
2018-07-01T11:09:09.149Z,55.30
2018-07-01T11:11:37.491Z,55.80
2018-07-01T11:14:05.885Z,55.70
2018-07-01T11:16:34.384Z,55.40
2018-07-01T11:19:02.792Z,55.30
2018-07-01T11:21:31.207Z,55.10
2018-07-01T11:24:03.336Z,53.40
2018-07-01T11:26:31.851Z,55.10
2018-07-01T11:29:00.167Z,55.70
2018-07-01T11:31:28.625Z,54.60
2018-07-01T11:33:57.877Z,54.00
2018-07-01T11:36:26.357Z,53.90
2018-07-01T11:38:54.771Z,52.80
2018-07-01T11:41:23.159Z,53.70
2018-07-01T11:43:51.598Z,52.40
2018-07-01T11:46:20.049Z,52.90
2018-07-01T11:48:48.556Z,52.30
2018-07-01T11:51:17.004Z,51.80
2018-07-01T11:53:45.320Z,52.50
2018-07-01T11:56:13.791Z,53.20
2018-07-01T11:58:42.112Z,53.30
2018-07-01T12:01:10.456Z,51.90
2018-07-01T12:03:38.861Z,51.90
2018-07-01T12:06:07.244Z,51.90
2018-07-01T12:08:35.724Z,52.30
2018-07-01T12:11:04.211Z,52.90
2018-07-01T12:13:32.675Z,51.50
2018-07-01T12:16:01.084Z,52.90
2018-07-01T12:18:29.495Z,52.10
2018-07-01T12:20:57.887Z,52.80
2018-07-01T12:23:26.356Z,51.80
2018-07-01T12:25:54.703Z,53.00
2018-07-01T12:28:23.106Z,51.20
2018-07-01T12:30:51.573Z,50.20
2018-07-01T12:33:20.207Z,50.70
2018-07-01T12:38:16.847Z,50.00
2018-07-01T12:40:45.432Z,50.40
2018-07-01T12:43:13.810Z,50.30
2018-07-01T12:45:42.257Z,49.40
2018-07-01T12:48:10.727Z,49.40
2018-07-01T12:50:39.150Z,50.20
2018-07-01T12:53:07.622Z,49.60
2018-07-01T12:55:36.112Z,49.30
2018-07-01T12:58:04.783Z,50.30
2018-07-01T13:00:33.234Z,50.30
2018-07-01T13:03:01.602Z,49.90
2018-07-01T13:05:30.142Z,49.20
2018-07-01T13:07:58.540Z,48.70
2018-07-01T13:10:26.956Z,49.40
2018-07-01T13:12:55.405Z,49.50
2018-07-01T13:15:23.819Z,49.10
2018-07-01T13:17:52.205Z,49.90
2018-07-01T13:20:20.576Z,48.60
2018-07-01T13:22:49.006Z,48.80
2018-07-01T13:25:17.443Z,49.30
2018-07-01T13:27:45.901Z,48.10
2018-07-01T13:30:14.292Z,48.10
2018-07-01T13:32:42.726Z,48.30
2018-07-01T13:35:11.083Z,49.70
2018-07-01T13:37:39.500Z,48.80
2018-07-01T13:40:08.014Z,48.20
2018-07-01T13:42:36.575Z,47.50
2018-07-01T13:45:06.797Z,48.60
2018-07-01T13:47:35.889Z,49.20
2018-07-01T13:50:05.091Z,48.80
2018-07-01T13:52:33.412Z,49.00
2018-07-01T13:55:01.733Z,46.80
2018-07-01T13:57:30.093Z,49.60
2018-07-01T13:59:58.503Z,47.60
2018-07-01T14:02:26.829Z,48.40
2018-07-01T14:04:55.443Z,48.00
2018-07-01T14:07:23.945Z,47.50
2018-07-01T14:09:52.354Z,48.40
2018-07-01T14:12:20.804Z,47.00
2018-07-01T14:14:49.223Z,46.60
2018-07-01T14:17:17.695Z,48.20
2018-07-01T14:19:46.260Z,46.90
2018-07-01T14:22:14.693Z,47.80
2018-07-01T14:24:43.083Z,46.30
2018-07-01T14:27:11.542Z,47.70
2018-07-01T14:29:39.855Z,46.80
2018-07-01T14:32:08.252Z,48.90
2018-07-01T14:34:36.641Z,45.60
2018-07-01T14:37:05.087Z,47.10
2018-07-01T14:39:33.547Z,47.80
2018-07-01T14:42:01.943Z,48.60
2018-07-01T14:44:30.474Z,44.80
2018-07-01T14:46:58.798Z,46.60
2018-07-01T14:49:27.209Z,47.40
2018-07-01T14:51:58.847Z,46.10
2018-07-01T14:54:27.199Z,45.50
2018-07-01T14:56:55.644Z,45.90
2018-07-01T14:59:24.063Z,45.70
2018-07-01T15:01:52.383Z,47.30
2018-07-01T15:04:20.828Z,45.80
2018-07-01T15:06:49.301Z,46.70
2018-07-01T15:09:17.690Z,45.30
2018-07-01T15:11:46.064Z,46.00
2018-07-01T15:14:14.530Z,44.50
2018-07-01T15:16:42.936Z,45.00
2018-07-01T15:19:11.396Z,43.20
2018-07-01T15:21:39.998Z,45.50
2018-07-01T15:24:08.422Z,45.30
2018-07-01T15:26:36.835Z,45.40
2018-07-01T15:29:05.274Z,43.60
2018-07-01T15:31:33.703Z,44.50
2018-07-01T15:34:02.102Z,42.10
2018-07-01T15:36:30.527Z,45.10
2018-07-01T15:38:58.876Z,45.40
2018-07-01T15:41:27.288Z,42.90
2018-07-01T15:43:58.814Z,42.70
2018-07-01T15:46:27.217Z,42.20
2018-07-01T15:48:55.646Z,43.70
2018-07-01T15:51:24.011Z,42.70
2018-07-01T15:53:52.400Z,45.20
2018-07-01T15:56:20.920Z,45.20
2018-07-01T15:58:49.400Z,46.60
2018-07-01T16:01:17.728Z,43.30
2018-07-01T16:03:46.114Z,46.60
2018-07-01T16:06:14.513Z,44.00
2018-07-01T16:08:42.925Z,47.90
2018-07-01T16:11:11.270Z,47.20
2018-07-01T16:13:39.694Z,48.60
2018-07-01T16:16:08.640Z,48.20
2018-07-01T16:18:37.100Z,49.00
2018-07-01T16:21:05.833Z,50.20
2018-07-01T16:23:34.333Z,48.50
2018-07-01T16:26:08.027Z,51.10
2018-07-01T16:31:08.795Z,51.50
2018-07-01T16:33:37.257Z,51.60
2018-07-01T16:36:05.684Z,51.60
2018-07-01T16:38:34.123Z,51.70
2018-07-01T16:41:02.609Z,52.20
2018-07-01T16:43:31.108Z,51.50
2018-07-01T16:46:02.631Z,51.50
2018-07-01T16:48:31.087Z,52.80
2018-07-01T16:50:59.479Z,52.00
2018-07-01T16:53:27.906Z,53.40
2018-07-01T16:55:56.920Z,53.60
2018-07-01T16:58:25.452Z,54.20
2018-07-01T17:00:53.863Z,53.30
2018-07-01T17:03:22.459Z,52.30
2018-07-01T17:05:50.832Z,54.60
2018-07-01T17:08:19.214Z,55.00
2018-07-01T17:10:47.863Z,55.10
2018-07-01T17:13:16.450Z,55.20
2018-07-01T17:15:44.805Z,55.50
2018-07-01T17:18:13.281Z,55.20
2018-07-01T17:20:41.701Z,55.60
2018-07-01T17:23:10.431Z,56.20
2018-07-01T17:25:44.314Z,55.80
2018-07-01T17:28:12.809Z,56.30
2018-07-01T17:30:41.267Z,55.30
2018-07-01T17:33:15.175Z,54.90
2018-07-01T17:35:43.733Z,53.90
2018-07-01T17:38:12.110Z,54.60
2018-07-01T17:40:40.571Z,53.80
2018-07-01T17:43:08.972Z,54.10
2018-07-01T17:45:37.464Z,54.00
2018-07-01T17:48:05.898Z,54.20
2018-07-01T17:50:34.237Z,53.70
2018-07-01T17:53:02.623Z,54.20
2018-07-01T17:55:31.028Z,54.00
2018-07-01T17:57:59.500Z,53.60
2018-07-01T18:00:28.026Z,55.40
2018-07-01T18:02:56.407Z,55.40
2018-07-01T18:05:25.002Z,55.50
2018-07-01T18:07:53.707Z,56.20
2018-07-01T18:10:22.475Z,54.80
2018-07-01T18:12:51.367Z,55.70
2018-07-01T18:15:20.066Z,55.00
2018-07-01T18:17:48.872Z,56.10
2018-07-01T18:20:17.646Z,56.40
2018-07-01T18:25:14.987Z,57.70
2018-07-01T18:27:46.827Z,59.30
2018-07-01T18:30:13.626Z,58.80
2018-07-01T18:32:42.401Z,58.60
2018-07-01T18:35:11.579Z,58.10
2018-07-01T18:37:40.218Z,59.70
2018-07-01T18:40:08.968Z,59.90
2018-07-01T18:45:06.388Z,59.20
2018-07-01T18:47:35.676Z,59.40
2018-07-01T18:50:04.891Z,59.80
2018-07-01T18:52:33.650Z,59.60
2018-07-01T18:55:02.350Z,62.10
2018-07-01T18:57:31.141Z,62.50
2018-07-01T18:59:59.929Z,62.30
2018-07-01T19:02:28.594Z,63.50
2018-07-01T19:07:25.753Z,64.30
2018-07-01T19:09:54.520Z,64.20
2018-07-01T19:12:23.246Z,65.10
2018-07-01T19:14:51.856Z,64.10
2018-07-01T19:17:20.617Z,63.30
2018-07-01T19:22:17.768Z,64.70
2018-07-01T19:24:46.390Z,62.30
2018-07-01T19:27:14.986Z,60.00
2018-07-01T19:29:43.645Z,60.10
2018-07-01T19:32:12.307Z,58.70
2018-07-01T19:34:40.896Z,58.30
2018-07-01T19:37:09.513Z,57.50
2018-07-01T19:39:38.262Z,56.60
2018-07-01T19:42:06.968Z,55.60
2018-07-01T19:44:35.577Z,55.20
2018-07-01T19:47:04.355Z,55.20
2018-07-01T19:49:32.970Z,54.60
2018-07-01T19:52:01.624Z,54.00
2018-07-01T19:54:30.240Z,53.80
2018-07-01T19:56:59.011Z,54.10
2018-07-01T19:59:27.681Z,53.50
2018-07-01T20:01:56.312Z,52.80
2018-07-01T20:04:24.977Z,52.40
2018-07-01T20:06:53.672Z,52.30
2018-07-01T20:09:22.270Z,52.20
2018-07-01T20:11:51.073Z,52.10
2018-07-01T20:14:19.784Z,51.60
2018-07-01T20:16:48.475Z,52.10
2018-07-01T20:19:16.803Z,51.80
2018-07-01T20:21:45.140Z,52.10
2018-07-01T20:24:13.654Z,52.00
2018-07-01T20:26:42.009Z,52.00
2018-07-01T20:29:10.442Z,51.80
2018-07-01T20:31:38.869Z,51.90
2018-07-01T20:34:07.283Z,51.70
2018-07-01T20:36:35.653Z,51.80
2018-07-01T20:39:06.908Z,51.80
2018-07-01T20:41:35.327Z,51.50
2018-07-01T20:44:03.763Z,52.10
2018-07-01T20:46:32.268Z,51.90
2018-07-01T20:49:01.013Z,51.90
2018-07-01T20:51:29.441Z,51.80
2018-07-01T20:53:57.828Z,52.00
2018-07-01T20:56:26.341Z,51.70
2018-07-01T20:58:56.067Z,51.80
2018-07-01T21:01:24.649Z,51.70
2018-07-01T21:03:53.443Z,51.60
2018-07-01T21:06:21.966Z,52.00
2018-07-01T21:08:50.574Z,51.50
2018-07-01T21:11:19.132Z,51.50
2018-07-01T21:13:47.532Z,51.50
2018-07-01T21:16:16.107Z,51.20
2018-07-01T21:18:44.622Z,51.30
2018-07-01T21:21:13.094Z,51.40
2018-07-01T21:23:41.537Z,51.60
2018-07-01T21:26:09.898Z,51.40
2018-07-01T21:28:38.357Z,51.40
2018-07-01T21:31:08.052Z,51.20
2018-07-01T21:33:36.491Z,51.60
2018-07-01T21:36:04.904Z,51.60
2018-07-01T21:38:33.365Z,51.40
2018-07-01T21:41:01.810Z,51.30
2018-07-01T21:43:30.374Z,51.30
2018-07-01T21:45:58.801Z,52.00
2018-07-01T21:48:27.308Z,52.30
2018-07-01T21:50:55.827Z,54.40
2018-07-01T21:53:24.233Z,53.00
2018-07-01T21:55:52.729Z,52.90
2018-07-01T21:58:21.246Z,53.40
2018-07-01T22:00:49.803Z,53.00
2018-07-01T22:03:18.898Z,53.00
2018-07-01T22:05:47.380Z,54.50
2018-07-01T22:08:15.710Z,54.10
2018-07-01T22:10:55.718Z,56.40
2018-07-01T22:14:29.581Z,56.30
2018-07-01T22:16:58.419Z,56.60
2018-07-01T22:19:26.920Z,54.60
2018-07-01T22:21:56.590Z,54.10
2018-07-01T22:24:25.387Z,54.80
2018-07-01T22:26:53.878Z,56.10
2018-07-01T22:29:22.354Z,56.80
2018-07-01T22:31:50.913Z,55.60
2018-07-01T22:34:22.805Z,57.20
2018-07-01T22:36:51.570Z,55.90
2018-07-01T22:39:28.430Z,54.30
2018-07-01T22:41:57.767Z,54.80
2018-07-01T22:44:26.208Z,55.20
2018-07-01T22:46:54.780Z,54.30
2018-07-01T22:49:23.180Z,55.20
2018-07-01T22:51:51.664Z,55.20
2018-07-01T22:54:19.978Z,54.90
2018-07-01T22:56:48.439Z,54.00
2018-07-01T22:59:16.821Z,54.70
2018-07-01T23:01:56.355Z,54.20
2018-07-01T23:04:25.710Z,55.60
2018-07-01T23:06:54.177Z,55.00
2018-07-01T23:09:22.629Z,55.20
2018-07-01T23:11:51.114Z,56.10
2018-07-01T23:16:47.613Z,56.00
2018-07-01T23:19:16.042Z,57.40
2018-07-01T23:21:44.460Z,56.90
2018-07-01T23:24:12.878Z,57.60
2018-07-01T23:26:41.232Z,57.30
2018-07-01T23:29:09.833Z,58.20
2018-07-01T23:31:38.292Z,57.70
2018-07-01T23:34:06.743Z,57.60
2018-07-01T23:36:35.201Z,57.40
2018-07-01T23:39:03.749Z,57.20
2018-07-01T23:41:32.098Z,56.50
2018-07-01T23:44:00.478Z,57.90
2018-07-01T23:46:28.858Z,56.30
2018-07-01T23:48:57.247Z,56.20
2018-07-01T23:51:25.629Z,58.40
2018-07-01T23:53:54.141Z,58.50
2018-07-01T23:56:22.684Z,58.80
2018-07-01T23:58:51.077Z,59.70
